Terminal Aerodrome Forecast
Issued by NWS

Home | Current Version | Previous Version | Text Only | Print | Product List | Glossary On
Versions: 1 2 3 4 5 6 7 8 9 10 11 12 13 14
000
FTUS43 KDTX 280520
TAFYIP
TAF
KYIP 280520Z 2806/2906 VRB03KT P6SM BKN060 BKN200
     FM280700 VRB03KT P6SM SCT120 BKN200
     FM281500 14007KT P6SM BKN045 BKN150
     FM282200 17006KT P6SM BKN060
      TEMPO 2822/2902 3SM TSRA BKN028CB OVC050
     FM290200 26006KT 5SM BR BKN025=

USA.gov is the U.S. government's official web portal to all federal, state and local government web resources and services.